createdAt,value
2018-06-10T00:01:39.771Z,13.20
2018-06-10T00:04:10.129Z,7.00
2018-06-10T00:06:40.223Z,6.07
2018-06-10T00:09:10.059Z,12.93
2018-06-10T00:11:39.876Z,6.10
2018-06-10T00:14:09.426Z,10.00
2018-06-10T00:16:38.957Z,7.40
2018-06-10T00:19:09.010Z,9.30
2018-06-10T00:21:38.797Z,6.13
2018-06-10T00:24:08.839Z,5.60
2018-06-10T00:26:38.687Z,5.80
2018-06-10T00:29:13.589Z,24.43
2018-06-10T00:31:43.605Z,7.87
2018-06-10T00:34:13.415Z,10.20
2018-06-10T00:36:43.199Z,7.03
2018-06-10T00:39:12.513Z,7.23
2018-06-10T00:41:41.801Z,6.60
2018-06-10T00:44:11.071Z,7.87
2018-06-10T00:46:40.333Z,7.83
2018-06-10T00:49:09.615Z,17.13
2018-06-10T00:51:38.943Z,6.80
2018-06-10T00:54:08.347Z,9.60
2018-06-10T00:56:50.670Z,8.17
2018-06-10T00:59:20.006Z,9.37
2018-06-10T01:01:49.359Z,6.47
2018-06-10T01:04:18.734Z,6.93
2018-06-10T01:06:48.089Z,13.27
2018-06-10T01:09:17.342Z,7.07
2018-06-10T01:11:46.639Z,10.13
2018-06-10T01:14:16.187Z,13.07
2018-06-10T01:16:45.632Z,12.77
2018-06-10T01:19:15.046Z,5.93
2018-06-10T01:21:45.402Z,10.40
2018-06-10T01:24:14.694Z,7.20
2018-06-10T01:26:49.065Z,6.97
2018-06-10T01:29:18.760Z,12.20
2018-06-10T01:31:48.101Z,8.90
2018-06-10T01:34:17.858Z,6.87
2018-06-10T01:36:47.117Z,11.90
2018-06-10T01:39:16.475Z,14.40
2018-06-10T01:41:45.899Z,5.60
2018-06-10T01:44:15.239Z,11.37
2018-06-10T01:46:44.647Z,5.50
2018-06-10T01:49:14.886Z,6.60
2018-06-10T01:51:44.218Z,7.90
2018-06-10T01:54:13.573Z,13.93
2018-06-10T01:56:43.197Z,9.63
2018-06-10T01:59:12.655Z,13.20
2018-06-10T02:01:41.953Z,11.40
2018-06-10T02:04:11.293Z,9.73
2018-06-10T02:06:40.535Z,8.23
2018-06-10T02:09:09.536Z,12.37
2018-06-10T02:11:38.820Z,10.00
2018-06-10T02:14:08.106Z,9.50
2018-06-10T02:16:37.405Z,10.90
2018-06-10T02:19:06.787Z,9.93
2018-06-10T02:21:36.057Z,5.90
2018-06-10T02:24:05.311Z,10.23
2018-06-10T02:26:34.633Z,15.03
2018-06-10T02:29:03.907Z,10.00
2018-06-10T02:31:33.252Z,6.67
2018-06-10T02:34:02.627Z,5.47
2018-06-10T02:36:31.928Z,15.57
2018-06-10T02:39:00.961Z,10.93
2018-06-10T02:41:30.627Z,12.63
2018-06-10T02:43:59.963Z,5.80
2018-06-10T02:46:29.234Z,5.40
2018-06-10T02:48:59.502Z,8.43
2018-06-10T02:51:28.779Z,6.83
2018-06-10T02:53:58.054Z,6.47
2018-06-10T02:56:27.334Z,9.70
2018-06-10T02:58:56.590Z,10.50
2018-06-10T03:01:25.880Z,8.73
2018-06-10T03:03:55.438Z,12.47
2018-06-10T03:06:28.771Z,6.27
2018-06-10T03:08:58.044Z,6.00
2018-06-10T03:11:27.351Z,5.63
2018-06-10T03:13:56.634Z,10.53
2018-06-10T03:16:26.096Z,5.90
2018-06-10T03:18:55.379Z,7.70
2018-06-10T03:21:24.651Z,7.60
2018-06-10T03:23:54.352Z,6.67
2018-06-10T03:26:23.650Z,9.10
2018-06-10T03:28:52.919Z,6.50
2018-06-10T03:31:22.172Z,8.13
2018-06-10T03:33:51.432Z,13.33
2018-06-10T03:36:20.749Z,11.47
2018-06-10T03:38:50.048Z,6.10
2018-06-10T03:41:19.371Z,11.37
2018-06-10T03:43:48.629Z,10.30
2018-06-10T03:46:18.084Z,7.50
2018-06-10T03:48:47.343Z,7.63
2018-06-10T03:51:16.614Z,10.63
2018-06-10T03:53:45.916Z,6.27
2018-06-10T03:56:15.171Z,8.50
2018-06-10T03:58:44.610Z,13.03
2018-06-10T04:01:13.954Z,8.63
2018-06-10T04:03:43.234Z,6.97
2018-06-10T04:06:12.500Z,11.10
2018-06-10T04:08:41.873Z,13.53
2018-06-10T04:11:11.295Z,6.60
2018-06-10T04:13:40.599Z,9.57
2018-06-10T04:16:09.853Z,6.30
2018-06-10T04:18:39.135Z,7.97
2018-06-10T04:21:08.418Z,7.27
2018-06-10T04:23:37.701Z,6.67
2018-06-10T04:26:07.095Z,12.03
2018-06-10T04:28:36.399Z,6.57
2018-06-10T04:31:06.030Z,12.40
2018-06-10T04:33:35.271Z,7.80
2018-06-10T04:36:04.540Z,7.63
2018-06-10T04:38:33.860Z,7.80
2018-06-10T04:41:03.116Z,13.60
2018-06-10T04:43:32.382Z,12.23
2018-06-10T04:46:01.658Z,8.13
2018-06-10T04:48:30.949Z,6.60
2018-06-10T04:51:00.219Z,12.10
2018-06-10T04:53:29.638Z,7.80
2018-06-10T04:55:58.876Z,9.53
2018-06-10T04:58:28.131Z,8.67
2018-06-10T05:00:57.410Z,21.43
2018-06-10T05:03:26.692Z,12.90
2018-06-10T05:05:56.085Z,10.57
2018-06-10T05:08:25.369Z,21.30
2018-06-10T05:10:54.639Z,19.47
2018-06-10T05:13:23.903Z,8.53
2018-06-10T05:15:53.662Z,8.23
2018-06-10T05:18:22.926Z,8.10
2018-06-10T05:20:52.168Z,8.83
2018-06-10T05:23:21.519Z,18.03
2018-06-10T05:25:50.769Z,10.20
2018-06-10T05:28:20.071Z,20.37
2018-06-10T05:30:49.354Z,10.50
2018-06-10T05:33:18.655Z,10.60
2018-06-10T05:35:47.923Z,13.97
2018-06-10T05:38:17.291Z,10.40
2018-06-10T05:40:46.582Z,11.27
2018-06-10T05:43:15.901Z,12.00
2018-06-10T05:45:45.416Z,11.40
2018-06-10T05:48:14.680Z,11.13
2018-06-10T05:50:43.690Z,16.37
2018-06-10T05:53:12.987Z,10.50
2018-06-10T05:55:42.270Z,13.30
2018-06-10T05:58:11.624Z,11.10
2018-06-10T06:00:41.251Z,14.90
2018-06-10T06:03:10.530Z,13.53
2018-06-10T06:05:39.786Z,17.90
2018-06-10T06:08:09.066Z,13.00
2018-06-10T06:10:38.322Z,13.67
2018-06-10T06:13:07.583Z,11.30
2018-06-10T06:15:36.862Z,10.10
2018-06-10T06:18:06.361Z,9.27
2018-06-10T06:20:35.642Z,22.30
2018-06-10T06:23:05.034Z,11.17
2018-06-10T06:25:34.391Z,20.33
2018-06-10T06:28:03.725Z,13.90
2018-06-10T06:30:33.018Z,12.50
2018-06-10T06:33:02.274Z,14.60
2018-06-10T06:35:31.774Z,10.13
2018-06-10T06:38:01.059Z,20.33
2018-06-10T06:40:30.350Z,11.87
2018-06-10T06:42:59.611Z,13.30
2018-06-10T06:45:28.969Z,12.27
2018-06-10T06:47:58.394Z,22.83
2018-06-10T06:50:27.659Z,13.40
2018-06-10T06:52:56.989Z,12.13
2018-06-10T06:55:26.271Z,16.80
2018-06-10T06:57:55.597Z,12.10
2018-06-10T07:00:24.927Z,14.80
2018-06-10T07:02:54.225Z,15.03
2018-06-10T07:05:23.549Z,14.73
2018-06-10T07:07:53.218Z,21.73
2018-06-10T07:10:22.547Z,16.90
2018-06-10T07:12:51.914Z,24.43
2018-06-10T07:15:21.208Z,12.33
2018-06-10T07:17:50.570Z,13.63
2018-06-10T07:20:19.870Z,28.23
2018-06-10T07:22:49.273Z,13.53
2018-06-10T07:25:18.767Z,14.00
2018-06-10T07:27:48.070Z,16.13
2018-06-10T07:30:17.654Z,12.67
2018-06-10T07:32:47.444Z,13.60
2018-06-10T07:35:17.081Z,13.07
2018-06-10T07:37:46.733Z,15.03
2018-06-10T07:40:16.125Z,17.60
2018-06-10T07:42:45.440Z,15.13
2018-06-10T07:45:14.809Z,13.07
2018-06-10T07:47:44.046Z,19.53
2018-06-10T07:50:13.404Z,18.83
2018-06-10T07:52:42.860Z,15.03
2018-06-10T07:55:12.368Z,12.60
2018-06-10T07:57:41.633Z,27.70
2018-06-10T08:00:11.043Z,13.20
2018-06-10T08:02:40.315Z,15.20
2018-06-10T08:05:09.573Z,12.43
2018-06-10T08:07:38.917Z,16.47
2018-06-10T08:10:08.192Z,10.70
2018-06-10T08:12:37.489Z,14.20
2018-06-10T08:15:07.286Z,12.70
2018-06-10T08:17:36.673Z,8.47
2018-06-10T08:20:05.963Z,13.07
2018-06-10T08:22:35.428Z,8.67
2018-06-10T08:25:04.717Z,19.63
2018-06-10T08:27:34.119Z,16.03
2018-06-10T08:30:03.550Z,10.30
2018-06-10T08:32:32.843Z,12.07
2018-06-10T08:35:02.631Z,18.73
2018-06-10T08:37:32.021Z,7.90
2018-06-10T08:40:01.478Z,11.10
2018-06-10T08:42:30.753Z,9.77
2018-06-10T08:45:00.099Z,10.60
2018-06-10T08:47:29.391Z,15.33
2018-06-10T08:49:58.733Z,10.27
2018-06-10T08:52:28.096Z,10.83
2018-06-10T08:54:57.429Z,13.10
2018-06-10T08:57:26.712Z,20.33
2018-06-10T08:59:56.233Z,23.67
2018-06-10T09:02:25.493Z,15.03
2018-06-10T09:04:54.956Z,12.57
2018-06-10T09:07:24.132Z,11.17
2018-06-10T09:09:53.619Z,12.30
2018-06-10T09:12:22.909Z,9.80
2018-06-10T09:14:52.330Z,12.23
2018-06-10T09:17:22.187Z,17.27
2018-06-10T09:19:52.124Z,16.10
2018-06-10T09:22:22.520Z,17.30
2018-06-10T09:24:52.275Z,14.70
2018-06-10T09:27:21.574Z,13.10
2018-06-10T09:29:51.442Z,20.90
2018-06-10T09:32:21.191Z,21.37
2018-06-10T09:34:50.912Z,19.20
2018-06-10T09:37:20.594Z,17.80
2018-06-10T09:39:50.459Z,16.67
2018-06-10T09:42:20.350Z,25.60
2018-06-10T09:44:49.947Z,12.00
2018-06-10T09:47:19.876Z,13.80
2018-06-10T09:49:49.433Z,13.83
2018-06-10T09:52:19.184Z,10.87
2018-06-10T09:54:48.871Z,14.10
2018-06-10T09:57:18.427Z,27.63
2018-06-10T09:59:48.619Z,17.27
2018-06-10T10:02:18.221Z,13.80
2018-06-10T10:04:47.840Z,22.57
2018-06-10T10:07:17.590Z,11.53
2018-06-10T10:09:47.266Z,15.63
2018-06-10T10:12:16.979Z,19.73
2018-06-10T10:14:46.596Z,17.80
2018-06-10T10:17:16.292Z,12.53
2018-06-10T10:19:46.062Z,15.93
2018-06-10T10:22:15.389Z,14.50
2018-06-10T10:24:44.800Z,12.40
2018-06-10T10:27:14.112Z,13.13
2018-06-10T10:29:43.522Z,29.63
2018-06-10T10:32:12.912Z,11.77
2018-06-10T10:34:42.429Z,12.53
2018-06-10T10:37:12.105Z,12.97
2018-06-10T10:39:41.397Z,12.93
2018-06-10T10:42:10.791Z,12.13
2018-06-10T10:44:40.171Z,15.43
2018-06-10T10:47:09.495Z,14.50
2018-06-10T10:49:38.757Z,18.87
2018-06-10T10:52:08.229Z,9.83
2018-06-10T10:54:37.607Z,13.40
2018-06-10T10:57:06.935Z,9.60
2018-06-10T10:59:36.238Z,11.63
2018-06-10T11:02:05.703Z,11.17
2018-06-10T11:04:34.992Z,12.07
2018-06-10T11:07:04.468Z,9.30
2018-06-10T11:09:35.117Z,11.60
2018-06-10T11:12:04.401Z,11.37
2018-06-10T11:14:34.936Z,15.77
2018-06-10T11:17:04.251Z,20.20
2018-06-10T11:19:33.609Z,21.57
2018-06-10T11:22:02.925Z,17.73
2018-06-10T11:24:32.273Z,18.23
2018-06-10T11:27:01.626Z,13.60
2018-06-10T11:29:31.038Z,10.93
2018-06-10T11:32:00.333Z,13.40
2018-06-10T11:34:32.651Z,11.97
2018-06-10T11:37:05.112Z,18.03
2018-06-10T11:39:34.915Z,17.73
2018-06-10T11:42:04.279Z,11.10
2018-06-10T11:44:33.548Z,14.70
2018-06-10T11:47:02.869Z,10.97
2018-06-10T11:49:32.193Z,12.40
2018-06-10T11:52:01.563Z,13.70
2018-06-10T11:54:31.231Z,13.50
2018-06-10T11:57:00.739Z,9.73
2018-06-10T11:59:30.173Z,16.27
2018-06-10T12:01:59.691Z,12.53
2018-06-10T12:04:29.188Z,21.90
2018-06-10T12:06:58.589Z,9.63
2018-06-10T12:09:28.023Z,13.00
2018-06-10T12:11:57.770Z,9.50
2018-06-10T12:14:27.142Z,13.23
2018-06-10T12:16:56.491Z,9.43
2018-06-10T12:19:25.890Z,13.00
2018-06-10T12:21:55.208Z,10.77
2018-06-10T12:24:24.245Z,23.43
2018-06-10T12:26:53.645Z,11.03
2018-06-10T12:29:22.981Z,21.10
2018-06-10T12:31:52.358Z,10.37
2018-06-10T12:34:21.639Z,9.93
2018-06-10T12:36:50.987Z,14.60
2018-06-10T12:39:20.266Z,10.90
2018-06-10T12:41:49.799Z,13.23
2018-06-10T12:44:19.095Z,13.40
2018-06-10T12:46:48.452Z,24.33
2018-06-10T12:49:17.827Z,12.33
2018-06-10T12:51:47.054Z,7.83
2018-06-10T12:54:16.592Z,8.30
2018-06-10T12:56:45.907Z,8.53
2018-06-10T12:59:15.248Z,8.23
2018-06-10T13:01:44.584Z,10.10
2018-06-10T13:04:14.331Z,25.13
2018-06-10T13:06:43.640Z,7.83
2018-06-10T13:09:12.926Z,15.03
2018-06-10T13:11:42.219Z,5.50
2018-06-10T13:14:11.498Z,10.73
2018-06-10T13:16:40.805Z,11.87
2018-06-10T13:19:10.196Z,8.90
2018-06-10T13:21:39.487Z,8.07
2018-06-10T13:24:08.832Z,17.30
2018-06-10T13:26:38.571Z,9.03
2018-06-10T13:29:08.044Z,7.40
2018-06-10T13:31:37.408Z,9.10
2018-06-10T13:34:06.747Z,12.53
2018-06-10T13:36:36.046Z,9.30
2018-06-10T13:39:08.811Z,7.13
2018-06-10T13:41:38.133Z,10.90
2018-06-10T13:44:07.499Z,8.20
2018-06-10T13:46:37.067Z,8.03
2018-06-10T13:49:06.355Z,10.70
2018-06-10T13:51:35.692Z,9.33
2018-06-10T13:54:05.000Z,7.70
2018-06-10T13:56:34.314Z,8.10
2018-06-10T13:59:03.578Z,11.50
2018-06-10T14:01:32.887Z,13.87
2018-06-10T14:04:02.174Z,9.33
2018-06-10T14:06:31.483Z,10.73
2018-06-10T14:09:01.076Z,9.63
2018-06-10T14:11:30.362Z,9.70
2018-06-10T14:13:59.636Z,12.43
2018-06-10T14:16:29.000Z,8.70
2018-06-10T14:18:58.293Z,8.30
2018-06-10T14:21:27.621Z,8.50
2018-06-10T14:23:56.983Z,13.03
2018-06-10T14:26:26.371Z,9.00
2018-06-10T14:28:55.657Z,13.83
2018-06-10T14:31:25.609Z,21.63
2018-06-10T14:33:54.861Z,13.37
2018-06-10T14:36:24.197Z,10.00
2018-06-10T14:38:53.527Z,8.97
2018-06-10T14:41:22.806Z,17.87
2018-06-10T14:43:52.323Z,9.93
2018-06-10T14:46:21.607Z,11.17
2018-06-10T14:48:50.949Z,12.70
2018-06-10T14:51:20.342Z,11.53
2018-06-10T14:53:49.768Z,13.53
2018-06-10T14:56:19.061Z,13.33
2018-06-10T14:58:48.334Z,9.10
2018-06-10T15:01:17.660Z,9.57
2018-06-10T15:03:46.985Z,10.40
2018-06-10T15:06:16.318Z,10.23
2018-06-10T15:08:45.698Z,10.83
2018-06-10T15:11:15.076Z,9.03
2018-06-10T15:13:44.344Z,9.30
2018-06-10T15:16:13.971Z,9.13
2018-06-10T15:18:43.419Z,11.77
2018-06-10T15:21:12.900Z,9.23
2018-06-10T15:23:42.363Z,14.57
2018-06-10T15:26:11.728Z,10.00
2018-06-10T15:28:41.096Z,9.90
2018-06-10T15:31:10.420Z,14.40
2018-06-10T15:33:39.794Z,10.93
2018-06-10T15:36:09.758Z,12.60
2018-06-10T15:38:39.379Z,12.07
2018-06-10T15:41:08.677Z,12.87
2018-06-10T15:43:37.999Z,16.97
2018-06-10T15:46:07.468Z,13.00
2018-06-10T15:48:36.799Z,13.40
2018-06-10T15:51:06.120Z,11.33
2018-06-10T15:53:35.406Z,11.90
2018-06-10T15:56:04.712Z,13.37
2018-06-10T15:58:34.091Z,16.67
2018-06-10T16:01:03.811Z,12.53
2018-06-10T16:03:33.088Z,14.77
2018-06-10T16:06:02.389Z,20.13
2018-06-10T16:08:31.768Z,13.77
2018-06-10T16:11:01.103Z,13.23
2018-06-10T16:13:30.627Z,18.70
2018-06-10T16:16:00.000Z,33.73
2018-06-10T16:18:29.319Z,32.27
2018-06-10T16:20:58.588Z,18.73
2018-06-10T16:23:28.585Z,12.83
2018-06-10T16:25:57.878Z,16.20
2018-06-10T16:28:27.183Z,11.30
2018-06-10T16:30:56.453Z,11.13
2018-06-10T16:33:25.751Z,12.93
2018-06-10T16:35:55.051Z,16.43
2018-06-10T16:38:24.455Z,15.50
2018-06-10T16:40:53.996Z,16.53
2018-06-10T16:43:23.399Z,20.20
2018-06-10T16:45:53.111Z,13.03
2018-06-10T16:48:22.481Z,18.50
2018-06-10T16:50:51.842Z,13.93
2018-06-10T16:53:21.197Z,18.67
2018-06-10T16:55:50.585Z,16.50
2018-06-10T16:58:19.939Z,18.33
2018-06-10T17:00:49.258Z,14.37
2018-06-10T17:03:18.541Z,16.23
2018-06-10T17:05:47.875Z,19.90
2018-06-10T17:08:17.383Z,21.40
2018-06-10T17:10:46.686Z,21.57
2018-06-10T17:13:16.065Z,26.40
2018-06-10T17:15:45.416Z,22.50
2018-06-10T17:18:14.720Z,22.53
2018-06-10T17:20:44.105Z,21.00
2018-06-10T17:23:13.428Z,21.87
2018-06-10T17:25:42.720Z,25.70
2018-06-10T17:28:12.045Z,26.37
2018-06-10T17:30:41.483Z,29.10
2018-06-10T17:33:10.756Z,20.47
2018-06-10T17:35:40.031Z,17.50
2018-06-10T17:38:09.371Z,19.40
2018-06-10T17:40:38.795Z,19.30
2018-06-10T17:43:08.055Z,19.60
2018-06-10T17:45:37.395Z,16.70
2018-06-10T17:48:06.764Z,30.73
2018-06-10T17:50:36.122Z,21.77
2018-06-10T17:53:06.013Z,18.53
2018-06-10T17:55:35.314Z,25.90
2018-06-10T17:58:04.672Z,18.07
2018-06-10T18:00:34.021Z,16.73
2018-06-10T18:03:04.397Z,14.73
2018-06-10T18:05:33.731Z,15.23
2018-06-10T18:08:03.139Z,14.13
2018-06-10T18:10:32.555Z,19.13
2018-06-10T18:13:01.972Z,16.87
2018-06-10T18:15:31.826Z,15.70
2018-06-10T18:18:01.243Z,14.50
2018-06-10T18:20:30.632Z,15.93
2018-06-10T18:23:00.067Z,16.13
2018-06-10T18:25:29.464Z,16.63
2018-06-10T18:27:59.651Z,14.17
2018-06-10T18:30:28.965Z,22.20
2018-06-10T18:32:58.491Z,13.63
2018-06-10T18:35:27.855Z,18.93
2018-06-10T18:37:57.296Z,18.93
2018-06-10T18:40:26.667Z,15.13
2018-06-10T18:42:56.076Z,25.03
2018-06-10T18:45:25.714Z,23.73
2018-06-10T18:47:55.037Z,17.53
2018-06-10T18:50:24.320Z,22.47
2018-06-10T18:52:53.759Z,19.17
2018-06-10T18:55:23.150Z,19.13
2018-06-10T18:57:52.555Z,21.17
2018-06-10T19:00:22.531Z,17.03
2018-06-10T19:02:51.916Z,15.07
2018-06-10T19:05:21.277Z,15.70
2018-06-10T19:07:50.657Z,15.20
2018-06-10T19:10:20.063Z,15.97
2018-06-10T19:12:49.928Z,14.43
2018-06-10T19:15:19.489Z,20.17
2018-06-10T19:17:48.926Z,13.93
2018-06-10T19:20:19.433Z,27.50
2018-06-10T19:22:49.003Z,23.77
2018-06-10T19:25:18.368Z,18.30
2018-06-10T19:27:47.698Z,21.43
2018-06-10T19:30:17.209Z,25.37
2018-06-10T19:32:46.552Z,24.43
2018-06-10T19:35:15.976Z,15.50
2018-06-10T19:37:45.317Z,15.20
2018-06-10T19:40:14.707Z,17.00
2018-06-10T19:42:44.389Z,27.27
2018-06-10T19:45:14.094Z,16.63
2018-06-10T19:47:43.417Z,18.23
2018-06-10T19:50:12.805Z,16.10
2018-06-10T19:52:42.226Z,18.90
2018-06-10T19:55:11.571Z,18.50
2018-06-10T19:57:40.968Z,23.60
2018-06-10T20:00:10.315Z,19.33
2018-06-10T20:02:39.700Z,22.33
2018-06-10T20:05:09.203Z,24.00
2018-06-10T20:07:39.057Z,33.03
2018-06-10T20:10:08.363Z,22.30
2018-06-10T20:12:37.688Z,22.60
2018-06-10T20:15:07.080Z,21.27
2018-06-10T20:17:37.261Z,26.60
2018-06-10T20:20:07.247Z,23.93
2018-06-10T20:22:36.613Z,21.23
2018-06-10T20:25:06.213Z,22.70
2018-06-10T20:27:35.501Z,27.37
2018-06-10T20:30:05.904Z,22.83
2018-06-10T20:32:35.176Z,18.47
2018-06-10T20:35:04.532Z,24.33
2018-06-10T20:37:33.889Z,28.50
2018-06-10T20:40:03.240Z,23.53
2018-06-10T20:42:32.695Z,27.57
2018-06-10T20:45:02.343Z,25.80
2018-06-10T20:47:31.737Z,20.10
2018-06-10T20:50:01.080Z,25.93
2018-06-10T20:52:30.700Z,19.33
2018-06-10T20:55:00.210Z,30.77
2018-06-10T20:57:29.527Z,22.80
2018-06-10T20:59:58.886Z,19.90
2018-06-10T21:02:28.161Z,21.77
2018-06-10T21:04:57.495Z,18.80
2018-06-10T21:07:26.923Z,15.10
2018-06-10T21:09:56.416Z,19.80
2018-06-10T21:12:25.733Z,18.10
2018-06-10T21:14:55.211Z,19.97
2018-06-10T21:17:24.532Z,17.60
2018-06-10T21:19:54.016Z,26.50
2018-06-10T21:22:23.397Z,14.90
2018-06-10T21:24:52.799Z,17.87
2018-06-10T21:27:22.643Z,18.77
2018-06-10T21:29:52.529Z,20.13
2018-06-10T21:32:22.401Z,17.83
2018-06-10T21:34:51.949Z,15.60
2018-06-10T21:37:21.683Z,20.67
2018-06-10T21:39:51.670Z,30.10
2018-06-10T21:42:21.336Z,18.50
2018-06-10T21:44:52.674Z,27.37
2018-06-10T21:47:22.124Z,31.80
2018-06-10T21:49:51.517Z,19.57
2018-06-10T21:52:20.907Z,22.00
2018-06-10T21:54:51.069Z,26.60
2018-06-10T21:57:20.702Z,31.03
2018-06-10T21:59:50.112Z,21.03
2018-06-10T22:02:19.568Z,21.13
2018-06-10T22:04:49.508Z,41.43
2018-06-10T22:07:18.933Z,21.83
2018-06-10T22:09:48.593Z,32.53
2018-06-10T22:12:17.948Z,27.97
2018-06-10T22:14:47.374Z,31.43
2018-06-10T22:17:16.493Z,27.30
2018-06-10T22:19:45.799Z,22.97
2018-06-10T22:22:15.603Z,40.83
2018-06-10T22:24:44.985Z,37.30
2018-06-10T22:27:14.321Z,30.80
2018-06-10T22:29:43.717Z,25.70
2018-06-10T22:32:13.259Z,27.40
2018-06-10T22:34:42.816Z,29.33
2018-06-10T22:37:12.042Z,29.20
2018-06-10T22:39:41.441Z,34.30
2018-06-10T22:42:10.828Z,36.37
2018-06-10T22:44:40.482Z,26.07
2018-06-10T22:47:09.836Z,30.13
2018-06-10T22:49:39.249Z,38.23
2018-06-10T22:52:08.923Z,34.83
2018-06-10T22:54:42.414Z,28.93
2018-06-10T22:57:12.899Z,28.67
2018-06-10T22:59:42.271Z,34.53
2018-06-10T23:02:11.978Z,26.67
2018-06-10T23:04:41.539Z,31.00
2018-06-10T23:07:10.907Z,23.97
2018-06-10T23:09:40.282Z,24.87
2018-06-10T23:12:09.589Z,25.07
2018-06-10T23:14:38.842Z,33.93
2018-06-10T23:17:08.159Z,37.07
2018-06-10T23:19:37.448Z,22.47
2018-06-10T23:22:06.716Z,21.73
2018-06-10T23:24:36.026Z,29.23
2018-06-10T23:27:05.348Z,31.47
2018-06-10T23:29:34.615Z,23.43
2018-06-10T23:32:03.983Z,25.30
2018-06-10T23:34:33.426Z,30.10
2018-06-10T23:37:02.671Z,37.27
2018-06-10T23:39:31.954Z,21.40
2018-06-10T23:42:01.221Z,21.13
2018-06-10T23:44:30.524Z,23.23
2018-06-10T23:46:59.793Z,25.70
2018-06-10T23:49:29.408Z,30.53
2018-06-10T23:51:58.692Z,21.87
2018-06-10T23:54:27.967Z,28.70
2018-06-10T23:56:57.233Z,21.20
2018-06-10T23:59:26.492Z,23.57
